LIBF/FOG METAR and TAF weather

Enter ICAO airport designator
Station Type Date Time Source
LIBF METAR 2022/08/13 11:50 UTC NOAA

LIBF 131150Z 34006KT 320V020 9999 FEW040 28/14 Q1010


Station Type Date Time Source
LIBF Decoded METAR 2022/08/13 11:50 UTC NOAA

Station name not available
Aug 13, 2022 - 07:50 AM EDT / 2022.08.13 1150 UTC
Wind: from the NNW (340 degrees) at 7 MPH (6 KT) (direction variable):0
Visibility: greater than 7 mile(s):0
Sky conditions: mostly clear
Temperature: 82 F (28 C)
Dew Point: 57 F (14 C)
Relative Humidity: 42%
Pressure (altimeter): 29.83 in. Hg (1010 hPa)
ob: LIBF 131150Z 34006KT 320V020 9999 FEW040 28/14 Q1010
cycle: 12

Station Type Date Time Source
LIBF TAF 2022/08/13 12:00 UTC NOAA

TAF LIBF 131100Z 1312/1412 32012KT 9999 SCT025
TEMPO 1314/1318 4000 TSRA

Example: see airport list